Time;durP1;ratioP1;P1;durP2;ratioP2;P2;SDS_P1;SDS_P2;PMS_P1;PMS_P2;Temp;Humidity;BMP_temperature;BMP_pressure;BME280_temperature;BME280_humidity;BME280_pressure;Samples;Min_cycle;Max_cycle;Signal;HPM_P1;HPM_P2
2021/12/20 00:01:01;;;;;;;8.15;5.00;;;2.40;84.30;;;0.99;80.04;95363.13;4058314;34;20000;-86
2021/12/20 00:03:27;;;;;;;8.30;5.32;;;2.40;84.30;;;1.01;80.16;95365.59;4079863;34;20515;-87
2021/12/20 00:05:53;;;;;;;9.02;5.68;;;2.40;84.30;;;1.02;80.00;95359.16;4057575;34;19992;-86
2021/12/20 00:08:19;;;;;;;8.38;5.00;;;2.40;84.20;;;1.01;79.91;95357.50;4079578;34;20013;-86
2021/12/20 00:10:46;;;;;;;7.70;4.93;;;2.40;84.30;;;1.02;80.23;95361.84;4079736;34;20259;-86
2021/12/20 00:13:12;;;;;;;7.65;4.32;;;2.40;84.40;;;0.99;79.84;95346.97;4058059;34;20004;-86
2021/12/20 00:15:38;;;;;;;9.23;5.35;;;2.40;84.30;;;1.01;79.55;95352.94;4057765;34;20064;-86
2021/12/20 00:18:05;;;;;;;8.70;5.43;;;2.40;84.30;;;1.00;79.97;95354.00;4057634;34;19999;-86
2021/12/20 00:20:31;;;;;;;7.43;4.88;;;2.40;84.40;;;1.01;80.28;95341.31;4101646;34;20226;-86
2021/12/20 00:22:57;;;;;;;8.70;5.03;;;2.30;84.40;;;1.00;80.38;95326.22;4058068;34;20009;-86
2021/12/20 00:25:24;;;;;;;7.68;4.80;;;2.40;84.40;;;1.00;79.93;95321.66;4078866;34;20270;-86
2021/12/20 00:27:50;;;;;;;8.10;5.03;;;2.40;84.40;;;1.00;80.07;95321.66;4079073;34;19993;-86
2021/12/20 00:30:17;;;;;;;8.70;5.20;;;2.40;84.40;;;1.00;79.85;95320.81;4061237;34;20307;-86
2021/12/20 00:32:43;;;;;;;7.93;4.95;;;2.40;84.40;;;1.01;79.99;95315.22;4041112;34;20011;-86
2021/12/20 00:35:12;;;;;;;7.70;4.90;;;2.30;84.30;;;1.00;80.20;95310.03;4038796;34;20242;-86
2021/12/20 00:40:23;;;;;;;7.90;4.82;;;2.30;84.40;;;1.01;79.89;95323.31;4064122;34;20340;-85
2021/12/20 00:42:58;;;;;;;7.97;5.00;;;2.40;84.40;;;1.00;80.19;95320.81;4036323;34;20054;-84
2021/12/20 00:45:32;;;;;;;8.10;4.97;;;2.40;84.50;;;1.00;80.22;95318.13;4037908;34;20060;-83
2021/12/20 00:47:59;;;;;;;7.30;4.30;;;2.30;84.30;;;1.01;79.78;95322.47;4017841;34;20243;-82
2021/12/20 00:50:26;;;;;;;8.10;4.60;;;2.40;84.40;;;1.00;79.99;95320.81;4016070;34;20004;-83
2021/12/20 00:52:53;;;;;;;9.35;5.55;;;2.40;84.30;;;1.00;80.50;95327.03;4105445;34;20128;-82
2021/12/20 00:55:21;;;;;;;8.32;4.95;;;2.40;84.40;;;1.01;80.00;95317.06;4061543;34;20024;-82
2021/12/20 00:57:49;;;;;;;7.47;4.70;;;2.30;84.40;;;1.00;80.01;95315.44;4035720;34;20004;-83
2021/12/20 01:00:21;;;;;;;7.55;4.25;;;2.40;84.30;;;0.99;79.86;95313.78;4079339;34;20001;-83
2021/12/20 01:02:47;;;;;;;7.05;4.10;;;2.30;84.30;;;0.99;80.16;95314.63;4100777;34;20118;-83
2021/12/20 01:05:13;;;;;;;7.03;4.25;;;2.30;84.40;;;1.00;80.23;95310.88;4078324;34;20116;-83
2021/12/20 01:07:40;;;;;;;6.75;4.40;;;2.30;84.30;;;1.00;79.84;95304.66;4057102;34;20312;-83
2021/12/20 01:10:09;;;;;;;6.53;4.43;;;2.30;84.40;;;1.00;79.86;95310.03;4057265;34;20060;-82
2021/12/20 01:12:50;;;;;;;7.18;4.47;;;2.40;84.50;;;0.98;79.89;95312.97;4100677;34;20080;-82
2021/12/20 01:15:32;;;;;;;6.68;4.50;;;2.30;84.40;;;1.00;80.10;95310.03;4080974;34;20327;-83
2021/12/20 01:17:59;;;;;;;9.20;4.70;;;2.40;84.40;;;1.00;79.95;95304.66;4100193;34;19992;-84
2021/12/20 01:20:26;;;;;;;8.13;4.87;;;2.30;84.30;;;1.00;80.00;95299.25;4100554;34;19997;-85
2021/12/20 01:22:52;;;;;;;6.32;4.20;;;2.30;84.30;;;0.99;79.71;95303.00;4100436;34;20363;-84
2021/12/20 01:25:19;;;;;;;7.40;4.90;;;2.40;84.20;;;1.00;79.84;95300.09;4100164;34;20241;-84
2021/12/20 01:27:46;;;;;;;6.55;4.00;;;2.30;84.40;;;0.99;80.15;95287.66;4057131;34;20078;-84
2021/12/20 01:30:14;;;;;;;7.53;4.32;;;2.30;84.30;;;0.99;79.89;95290.38;4078471;34;20062;-84
2021/12/20 01:32:41;;;;;;;6.85;4.40;;;2.40;84.20;;;0.99;79.80;95276.06;4078472;34;20226;-84
2021/12/20 01:35:08;;;;;;;5.82;3.67;;;2.30;84.30;;;0.99;79.63;95270.66;4078529;34;20005;-84
2021/12/20 01:37:35;;;;;;;6.10;4.13;;;2.40;84.40;;;0.99;80.01;95268.81;4099980;34;20028;-83
2021/12/20 01:40:02;;;;;;;6.68;4.13;;;2.30;84.30;;;1.00;80.09;95272.31;4056800;34;20469;-84
2021/12/20 01:42:32;;;;;;;6.85;4.13;;;2.30;84.30;;;0.98;80.04;95260.94;4100069;34;19992;-85
2021/12/20 01:44:58;;;;;;;6.65;3.90;;;2.30;84.40;;;1.00;79.94;95266.91;4078273;34;20008;-84
2021/12/20 01:47:32;;;;;;;5.90;4.10;;;2.30;84.40;;;0.99;79.93;95267.97;4108931;34;19997;-85
2021/12/20 01:50:11;;;;;;;5.97;3.88;;;2.30;84.40;;;1.00;79.91;95275.00;4101596;34;20250;-84
2021/12/20 01:52:43;;;;;;;6.50;4.03;;;2.30;84.40;;;1.00;80.17;95275.00;4080497;34;20026;-84
2021/12/20 01:55:16;;;;;;;5.45;3.60;;;2.30;84.40;;;0.99;79.88;95267.97;4079873;34;20064;-84
2021/12/20 01:57:43;;;;;;;5.18;3.45;;;2.30;84.40;;;1.00;80.00;95256.13;4079595;34;20366;-83
2021/12/20 02:00:15;;;;;;;6.65;3.72;;;2.30;84.30;;;1.00;79.96;95258.84;4035278;34;20540;-83
2021/12/20 02:02:57;;;;;;;5.20;3.50;;;2.30;84.30;;;1.00;80.00;95256.13;4051032;34;19996;-84
2021/12/20 02:05:48;;;;;;;5.63;3.55;;;2.30;84.40;;;0.99;79.98;95254.50;4037055;34;20102;-83
2021/12/20 02:10:44;;;;;;;6.45;4.30;;;2.30;84.40;;;0.97;80.19;95246.66;4080793;34;20246;-85
2021/12/20 02:13:13;;;;;;;5.28;3.08;;;2.30;84.40;;;0.99;79.98;95257.19;4062165;34;20061;-85
2021/12/20 02:15:39;;;;;;;5.53;3.87;;;2.30;84.30;;;0.98;79.96;95248.31;4037527;34;20122;-85
2021/12/20 02:18:06;;;;;;;5.80;3.90;;;2.30;84.30;;;0.99;80.15;95249.94;4037327;34;19996;-84
2021/12/20 02:20:33;;;;;;;5.88;3.72;;;2.30;84.20;;;0.98;79.76;95259.06;4058955;34;20230;-85
2021/12/20 02:23:00;;;;;;;5.60;3.95;;;2.30;84.20;;;0.97;79.60;95257.44;4102432;34;20336;-85
2021/12/20 02:25:28;;;;;;;5.00;3.10;;;2.30;84.20;;;0.99;80.12;95249.09;4124354;34;20320;-84
2021/12/20 02:27:55;;;;;;;4.20;3.08;;;2.30;84.30;;;0.99;80.06;95251.81;4065649;34;20251;-83
2021/12/20 02:38:41;;;;;;;4.78;3.35;;;2.30;84.30;;;1.00;80.23;95242.66;4037464;34;20623;-84
2021/12/20 02:41:16;;;;;;;4.00;2.95;;;2.30;84.40;;;0.99;80.11;95238.31;4037366;34;20028;-84
2021/12/20 02:43:53;;;;;;;5.37;2.80;;;2.30;84.40;;;0.98;79.80;95242.06;4058620;34;20327;-84
2021/12/20 02:46:50;;;;;;;4.78;2.92;;;2.30;84.30;;;0.99;79.86;95232.94;4043350;34;20635;-84
2021/12/20 02:49:27;;;;;;;5.10;3.13;;;2.30;84.40;;;0.99;80.03;95241.03;4070579;34;20173;-84
2021/12/20 02:52:00;;;;;;;3.90;3.10;;;2.30;84.40;;;0.99;79.95;95239.16;4021478;34;20071;-84
2021/12/20 02:54:26;;;;;;;4.75;2.80;;;2.30;84.40;;;0.99;80.38;95238.31;4057907;34;20075;-85
2021/12/20 02:56:52;;;;;;;4.53;3.13;;;2.30;84.40;;;0.99;79.73;95243.72;4080433;34;20102;-84
2021/12/20 02:59:19;;;;;;;4.00;2.80;;;2.30;84.30;;;0.98;80.02;95234.00;4058597;34;20066;-84
2021/12/20 03:01:52;;;;;;;5.30;3.20;;;2.30;84.40;;;0.99;79.97;95236.47;4058443;34;19993;-84
2021/12/20 03:04:19;;;;;;;5.60;2.40;;;2.30;84.40;;;1.00;80.04;95239.97;4081332;34;20099;-84
2021/12/20 03:06:50;;;;;;;5.32;3.13;;;2.30;84.40;;;0.98;80.17;95236.69;4058178;34;20016;-84
2021/12/20 03:09:20;;;;;;;4.93;3.10;;;2.30;84.40;;;0.98;80.26;95221.34;4102245;34;19985;-84
2021/12/20 03:11:48;;;;;;;3.42;2.22;;;2.30;84.40;;;0.98;79.95;95218.66;4103156;34;20238;-84
2021/12/20 03:16:41;;;;;;;4.78;3.05;;;2.30;84.30;;;0.98;79.89;95220.50;4080475;34;20149;-84
2021/12/20 03:19:07;;;;;;;3.60;2.33;;;2.30;84.30;;;0.99;80.36;95222.16;4079934;34;20065;-83
2021/12/20 03:21:34;;;;;;;6.55;3.13;;;2.30;84.40;;;0.98;80.02;95217.81;4079301;34;20402;-84
2021/12/20 03:24:00;;;;;;;4.10;2.92;;;2.30;84.30;;;0.98;80.11;95232.13;4079874;34;20305;-84
2021/12/20 03:26:26;;;;;;;4.30;2.83;;;2.30;84.40;;;0.99;80.13;95228.38;4079717;34;20008;-84
2021/12/20 03:28:53;;;;;;;4.40;2.65;;;2.30;84.30;;;0.98;80.01;95225.91;4064502;34;19989;-84
2021/12/20 03:31:19;;;;;;;3.63;2.38;;;2.30;84.40;;;0.98;80.01;95226.75;4079883;34;19989;-84
2021/12/20 03:33:45;;;;;;;4.07;2.45;;;2.30;84.30;;;0.99;79.80;95244.56;4079698;34;19983;-83
2021/12/20 03:36:12;;;;;;;4.03;2.55;;;2.30;84.40;;;0.98;79.96;95237.53;4079252;34;20072;-83
2021/12/20 03:38:38;;;;;;;4.55;2.78;;;2.30;84.40;;;0.98;80.23;95239.38;4058251;34;20030;-83
2021/12/20 03:41:04;;;;;;;4.18;2.83;;;2.30;85.10;;;0.99;79.97;95241.03;4101737;34;20394;-83
2021/12/20 03:43:31;;;;;;;3.70;2.45;;;2.30;84.40;;;1.00;79.77;95256.13;4101547;34;20264;-83
2021/12/20 03:46:02;;;;;;;3.90;2.53;;;2.30;84.30;;;0.99;80.00;95265.28;4058107;34;20043;-84
2021/12/20 03:48:29;;;;;;;4.07;2.40;;;2.30;84.40;;;0.98;79.83;95264.47;4080061;34;20096;-83
2021/12/20 03:50:56;;;;;;;3.65;2.40;;;2.30;84.40;;;1.00;80.13;95269.63;4079728;34;20235;-83
2021/12/20 03:53:23;;;;;;;4.68;2.90;;;2.30;84.40;;;0.99;79.93;95262.59;4072342;34;19989;-84
2021/12/20 03:55:49;;;;;;;5.25;2.80;;;2.30;84.40;;;0.99;79.80;95267.97;4078863;34;19985;-83
2021/12/20 03:58:16;;;;;;;4.25;2.50;;;2.30;84.40;;;0.98;80.00;95266.31;4057992;34;20281;-84
2021/12/20 04:00:43;;;;;;;3.33;1.92;;;2.30;84.40;;;0.99;80.03;95270.66;4104165;34;20017;-84
2021/12/20 04:03:13;;;;;;;5.07;2.60;;;2.30;84.30;;;0.99;80.39;95270.66;4084658;34;20211;-84
2021/12/20 04:05:39;;;;;;;2.80;2.00;;;2.30;84.40;;;0.98;79.77;95274.41;4063668;34;20035;-84
2021/12/20 04:08:06;;;;;;;4.10;2.83;;;2.30;84.50;;;0.97;80.11;95273.59;4062250;34;20345;-84
2021/12/20 04:10:33;;;;;;;3.60;2.38;;;2.30;84.40;;;0.98;79.96;95269.84;4083684;34;19988;-84
2021/12/20 04:12:59;;;;;;;4.18;2.50;;;2.30;84.30;;;0.98;80.06;95269.03;4062449;34;19988;-84
2021/12/20 04:15:25;;;;;;;3.65;2.20;;;2.30;84.30;;;0.99;79.98;95279.59;4105317;34;20012;-83
2021/12/20 04:17:52;;;;;;;3.80;2.65;;;2.30;84.40;;;0.97;79.99;95283.56;4062418;34;20071;-84
2021/12/20 04:20:19;;;;;;;4.55;2.50;;;2.30;84.20;;;0.99;80.08;95290.38;4083838;34;20000;-84
2021/12/20 04:22:46;;;;;;;4.68;2.70;;;2.30;84.20;;;0.98;79.90;95291.41;4083544;34;20008;-84
2021/12/20 04:25:12;;;;;;;3.70;2.38;;;2.30;84.40;;;0.99;80.12;95284.13;4078834;34;20310;-84
2021/12/20 04:27:38;;;;;;;4.45;2.80;;;2.30;84.40;;;0.98;80.17;95285.19;4079360;34;20075;-84
2021/12/20 04:30:10;;;;;;;3.45;2.40;;;2.30;84.40;;;0.99;80.13;95292.22;4079284;34;19995;-84
2021/12/20 04:32:43;;;;;;;3.80;2.45;;;2.30;84.40;;;0.98;80.03;95293.28;4057998;34;19977;-84
2021/12/20 04:35:11;;;;;;;4.03;2.20;;;2.30;84.30;;;0.98;79.84;95302.19;4079106;34;19993;-84
2021/12/20 04:37:40;;;;;;;3.72;2.50;;;2.30;84.30;;;0.99;80.09;95292.22;4057507;34;20477;-84
2021/12/20 04:40:11;;;;;;;3.95;2.50;;;2.30;84.30;;;0.99;80.14;95301.16;4058614;34;20136;-85
2021/12/20 04:42:38;;;;;;;3.55;2.42;;;2.30;84.30;;;0.99;79.81;95298.44;4058767;34;20064;-84
2021/12/20 04:45:05;;;;;;;3.55;2.50;;;2.30;84.40;;;0.97;80.03;95302.44;4035511;34;20045;-84
2021/12/20 04:47:32;;;;;;;3.88;2.25;;;2.30;84.30;;;0.98;80.09;95296.81;4079046;34;19985;-84
2021/12/20 04:49:59;;;;;;;3.63;2.15;;;2.30;84.30;;;0.97;79.83;95303.25;4057284;34;20254;-84
2021/12/20 04:52:26;;;;;;;3.65;2.25;;;2.30;84.40;;;0.99;79.94;95313.78;4057676;34;20084;-84
2021/12/20 04:54:52;;;;;;;3.83;2.72;;;2.30;84.40;;;0.97;79.91;95321.31;4043558;34;20224;-84
2021/12/20 04:57:19;;;;;;;3.22;2.25;;;2.30;84.40;;;0.97;80.06;95318.59;4062107;34;19992;-84
2021/12/20 04:59:45;;;;;;;3.30;2.17;;;2.30;84.40;;;0.98;80.28;95326.44;4083472;34;20047;-84
2021/12/20 05:02:11;;;;;;;4.68;2.40;;;2.30;84.40;;;0.98;79.90;95322.91;4083340;34;20240;-84
2021/12/20 05:04:38;;;;;;;3.80;2.03;;;2.30;84.40;;;0.99;80.27;95329.97;4083149;34;20323;-84
2021/12/20 05:07:04;;;;;;;2.88;1.95;;;2.30;84.40;;;0.98;79.85;95333.69;4083472;34;20087;-84
2021/12/20 05:09:37;;;;;;;2.35;1.70;;;2.30;84.50;;;0.98;79.77;95333.69;4083552;34;20015;-84
2021/12/20 05:12:11;;;;;;;4.28;2.22;;;2.30;84.40;;;0.99;79.82;95340.72;4059502;34;20234;-84
2021/12/20 05:14:47;;;;;;;3.65;2.20;;;2.30;84.40;;;0.98;80.01;95336.41;4059366;34;20016;-83
2021/12/20 05:17:13;;;;;;;3.67;1.98;;;2.30;84.40;;;0.98;79.83;95341.78;4035660;34;19993;-84
2021/12/20 05:19:41;;;;;;;2.85;1.98;;;2.30;84.30;;;0.99;80.07;95351.50;4078772;34;19997;-83
2021/12/20 05:22:11;;;;;;;3.50;1.92;;;2.30;84.40;;;0.97;79.98;95340.16;4100816;34;20328;-84
2021/12/20 05:24:38;;;;;;;2.85;1.95;;;2.30;84.30;;;0.98;80.16;95350.72;4056568;34;20311;-83
2021/12/20 05:27:05;;;;;;;3.80;2.20;;;2.30;84.40;;;0.97;80.17;95359.03;4056606;34;20103;-84
2021/12/20 05:29:32;;;;;;;3.28;2.00;;;2.30;84.40;;;0.97;80.15;95364.44;4078619;34;20324;-84
2021/12/20 05:31:58;;;;;;;3.55;2.03;;;2.30;84.50;;;0.99;80.06;95367.69;4035509;34;20273;-83
2021/12/20 05:34:25;;;;;;;3.22;2.15;;;2.30;84.50;;;0.97;80.06;95364.44;4078135;34;20237;-84
2021/12/20 05:36:51;;;;;;;3.70;2.33;;;2.30;84.50;;;0.98;80.08;95369.56;4056827;34;20327;-83
2021/12/20 05:39:17;;;;;;;3.53;1.98;;;2.30;84.40;;;0.98;79.93;95371.44;4078512;34;20027;-83
2021/12/20 05:41:44;;;;;;;4.13;2.08;;;2.30;84.40;;;0.98;80.07;95374.97;4056741;34;20000;-84
2021/12/20 05:44:11;;;;;;;3.58;2.17;;;2.30;84.30;;;0.98;80.02;95372.28;4056051;34;20000;-84
2021/12/20 05:46:37;;;;;;;4.40;2.40;;;2.30;84.40;;;0.98;80.13;95382.22;4056984;34;20024;-83
2021/12/20 05:49:03;;;;;;;2.70;1.67;;;2.30;84.40;;;0.98;79.83;95385.75;4078333;34;20291;-84
2021/12/20 05:51:30;;;;;;;3.58;2.25;;;2.30;84.40;;;0.97;79.78;95385.97;4100301;34;20004;-84
2021/12/20 05:53:57;;;;;;;3.67;2.30;;;2.30;84.40;;;0.98;80.06;95387.59;4056760;34;20235;-84
2021/12/20 05:56:23;;;;;;;3.55;2.42;;;2.30;84.40;;;0.97;79.76;95392.19;4078140;34;20349;-84
2021/12/20 05:58:49;;;;;;;3.70;2.10;;;2.30;84.30;;;0.97;79.97;95397.56;4056634;34;20011;-84
2021/12/20 06:01:16;;;;;;;3.08;2.03;;;2.30;84.40;;;0.97;79.81;95404.84;4035191;34;20072;-84
2021/12/20 06:03:42;;;;;;;3.08;1.73;;;2.30;84.30;;;0.97;79.91;95391.38;4078177;34;20100;-84
2021/12/20 06:06:08;;;;;;;3.03;1.98;;;2.30;84.40;;;0.98;79.87;95409.16;4078006;34;20239;-85
2021/12/20 06:08:35;;;;;;;3.83;2.30;;;2.30;84.30;;;0.98;79.82;95404.59;4035311;34;20250;-85
2021/12/20 06:11:02;;;;;;;3.50;1.85;;;2.30;84.40;;;0.97;80.12;95415.63;4056702;34;19996;-84
2021/12/20 06:13:28;;;;;;;2.88;1.65;;;2.30;84.40;;;0.99;79.99;95416.19;4056555;34;20258;-85
2021/12/20 06:15:54;;;;;;;3.63;1.98;;;2.30;84.40;;;0.98;80.04;95419.94;4077661;34;20064;-84
2021/12/20 06:18:20;;;;;;;3.05;2.13;;;2.30;84.30;;;0.97;80.00;95423.72;4056788;34;20139;-84
2021/12/20 06:20:47;;;;;;;3.25;1.98;;;2.30;84.20;;;0.98;80.29;95430.72;4078586;34;20135;-84
2021/12/20 06:23:13;;;;;;;3.30;2.35;;;2.30;84.30;;;0.98;79.87;95444.19;4082584;34;20043;-85
2021/12/20 06:25:40;;;;;;;3.85;2.42;;;2.30;84.30;;;0.96;80.00;95441.75;4060857;34;20149;-85
2021/12/20 06:28:06;;;;;;;3.10;2.33;;;2.30;84.30;;;0.97;80.10;95453.34;4039993;34;20604;-84
2021/12/20 06:30:32;;;;;;;3.70;2.15;;;2.30;84.30;;;0.97;79.72;95451.47;4061201;34;20131;-85
2021/12/20 06:32:58;;;;;;;3.28;2.00;;;2.30;84.40;;;0.98;79.89;95458.50;4039839;34;20211;-85
2021/12/20 06:35:25;;;;;;;3.33;2.47;;;2.30;84.40;;;0.97;80.13;95456.88;4039477;34;20001;-85
2021/12/20 06:38:00;;;;;;;3.55;2.25;;;2.30;84.40;;;0.98;79.89;95457.66;4072005;34;20028;-85
2021/12/20 06:40:28;;;;;;;3.90;2.38;;;2.30;84.50;;;0.98;80.26;95463.91;4079725;34;20072;-85
2021/12/20 06:42:54;;;;;;;4.00;2.78;;;2.30;84.40;;;0.97;79.91;95464.94;4087296;34;20088;-85
2021/12/20 06:45:21;;;;;;;4.72;2.50;;;2.30;84.30;;;0.97;80.07;95464.94;4056148;34;20172;-85
2021/12/20 06:47:47;;;;;;;3.95;2.60;;;2.30;84.30;;;0.98;79.77;95479.22;4081555;34;20231;-85
2021/12/20 06:50:13;;;;;;;3.45;2.25;;;2.30;84.30;;;0.98;80.15;95484.63;4061885;34;19992;-85
2021/12/20 06:52:40;;;;;;;3.90;2.72;;;2.30;84.30;;;0.99;80.14;95486.28;4056133;34;19981;-85
2021/12/20 06:55:07;;;;;;;4.97;2.92;;;2.30;84.30;;;0.97;80.11;95483.81;4078960;34;20003;-85
2021/12/20 06:57:33;;;;;;;3.40;2.35;;;2.30;84.30;;;0.98;79.74;95490.00;4058777;34;20264;-85
2021/12/20 07:00:00;;;;;;;3.17;2.30;;;2.30;84.20;;;0.97;80.27;95499.19;4080363;34;20304;-85
2021/12/20 07:02:27;;;;;;;3.85;2.80;;;2.30;84.20;;;0.98;79.76;95500.78;4037606;34;20091;-86
2021/12/20 07:04:54;;;;;;;4.18;2.33;;;2.30;84.30;;;0.99;80.48;95511.38;4037020;34;20359;-85
2021/12/20 07:07:20;;;;;;;4.38;2.45;;;2.30;84.30;;;0.98;80.25;95507.03;4058301;34;20349;-85
2021/12/20 07:09:46;;;;;;;3.83;2.40;;;2.30;84.40;;;0.97;80.03;95512.66;4058508;34;19996;-85
2021/12/20 07:12:12;;;;;;;4.15;2.53;;;2.30;84.30;;;0.98;79.83;95519.66;4037172;34;20120;-85
2021/12/20 07:14:40;;;;;;;3.53;2.28;;;2.30;84.20;;;0.98;80.14;95516.97;4036673;34;19999;-85
2021/12/20 07:17:06;;;;;;;4.65;2.70;;;2.30;84.30;;;0.98;80.26;95522.34;4100238;34;19996;-85
2021/12/20 07:19:33;;;;;;;4.32;2.53;;;2.30;84.20;;;0.97;79.73;95521.53;4084942;34;20043;-85
2021/12/20 07:21:59;;;;;;;4.10;2.40;;;2.30;84.20;;;0.99;80.09;95524.00;4084507;34;20000;-85
2021/12/20 07:24:25;;;;;;;5.07;2.70;;;2.30;84.20;;;0.98;79.90;95525.03;4062634;34;20044;-85
2021/12/20 07:26:52;;;;;;;4.95;3.00;;;2.40;84.20;;;0.98;79.86;95530.44;4084409;34;20219;-85
2021/12/20 07:29:18;;;;;;;3.92;2.88;;;2.30;84.20;;;1.00;79.97;95533.72;4084656;34;19996;-83
2021/12/20 07:31:45;;;;;;;3.88;2.67;;;2.30;84.20;;;1.00;80.07;95536.44;4063108;34;19991;-84
2021/12/20 07:34:11;;;;;;;3.58;2.65;;;2.30;84.20;;;0.99;79.90;95545.56;4063824;34;20224;-84
2021/12/20 07:36:38;;;;;;;4.15;2.75;;;2.30;84.20;;;0.99;80.16;95540.16;4102015;34;20180;-83
2021/12/20 07:39:05;;;;;;;3.85;2.42;;;2.30;84.20;;;1.00;80.10;95552.59;4076893;34;20383;-84
2021/12/20 07:41:32;;;;;;;3.50;2.40;;;2.30;84.30;;;0.99;80.03;95540.16;4084293;34;20304;-85
2021/12/20 07:43:58;;;;;;;3.50;2.45;;;2.40;84.20;;;0.98;80.27;95538.53;4083899;34;20082;-84
2021/12/20 07:46:24;;;;;;;3.42;2.42;;;2.30;84.40;;;0.99;80.04;95550.94;4084155;34;20050;-84
2021/12/20 07:48:51;;;;;;;4.28;2.78;;;2.30;84.20;;;1.00;79.60;95558.81;4062632;34;20029;-85
2021/12/20 07:51:17;;;;;;;6.40;2.38;;;2.40;84.10;;;1.00;79.90;95558.81;4065139;34;20241;-84
2021/12/20 07:53:44;;;;;;;3.78;2.42;;;2.40;84.20;;;1.00;79.90;95558.81;4095973;34;20016;-84
2021/12/20 07:56:12;;;;;;;4.25;2.45;;;2.40;84.10;;;1.01;79.84;95568.56;4105986;34;20326;-84
2021/12/20 07:58:39;;;;;;;3.78;2.35;;;2.40;84.20;;;1.03;79.49;95565.63;4080092;34;19993;-84
2021/12/20 08:01:05;;;;;;;3.80;2.25;;;2.40;84.10;;;1.02;79.50;95567.50;4057877;34;20011;-84
2021/12/20 08:03:34;;;;;;;3.15;2.20;;;2.40;84.00;;;1.04;79.70;95575.38;4057916;34;20223;-84
2021/12/20 08:06:00;;;;;;;3.70;2.22;;;2.40;84.00;;;1.03;79.85;95573.72;4079749;34;20008;-84
2021/12/20 08:08:27;;;;;;;2.30;1.65;;;2.40;84.00;;;1.04;79.91;95586.16;4080773;34;20132;-84
2021/12/20 08:10:54;;;;;;;4.80;2.70;;;2.40;84.00;;;1.04;79.79;95591.53;4062464;34;20267;-84
2021/12/20 08:13:20;;;;;;;4.65;2.65;;;2.40;84.00;;;1.02;79.58;95583.69;4062665;34;20243;-85
2021/12/20 08:15:46;;;;;;;3.65;2.17;;;2.40;83.90;;;1.02;79.91;95594.47;4105467;34;20304;-84
2021/12/20 08:18:13;;;;;;;3.13;2.40;;;2.40;84.00;;;1.02;80.05;95594.47;4059355;34;20499;-84
2021/12/20 08:20:39;;;;;;;3.20;2.15;;;2.40;84.00;;;1.02;79.83;95607.94;4057947;34;20211;-84
2021/12/20 08:23:06;;;;;;;4.32;2.55;;;2.40;84.00;;;1.03;79.48;95606.06;4079398;34;20018;-84
2021/12/20 08:25:32;;;;;;;3.67;2.28;;;2.40;83.80;;;1.03;79.45;95617.66;4079176;34;20493;-84
2021/12/20 08:27:58;;;;;;;4.95;2.80;;;2.40;84.00;;;1.02;79.91;95631.38;4057738;34;19989;-84
2021/12/20 08:30:25;;;;;;;4.45;2.63;;;2.40;84.00;;;1.03;79.59;95633.81;4036239;34;20298;-85
2021/12/20 08:32:51;;;;;;;4.30;2.67;;;2.40;83.90;;;1.02;79.92;95639.44;4057614;34;20434;-84
2021/12/20 08:35:17;;;;;;;3.45;2.30;;;2.40;84.00;;;1.01;79.89;95640.50;4057337;34;20008;-85
2021/12/20 08:37:44;;;;;;;5.10;2.80;;;2.40;83.90;;;1.02;79.64;95645.69;4057480;34;20075;-84
2021/12/20 08:40:13;;;;;;;3.80;2.38;;;2.40;83.90;;;1.01;79.46;95645.88;4057726;34;20141;-84
2021/12/20 08:42:40;;;;;;;4.32;2.35;;;2.40;83.90;;;1.01;79.90;95645.88;4057752;34;20209;-84
2021/12/20 08:45:08;;;;;;;3.63;2.60;;;2.40;83.90;;;1.03;80.12;95649.19;4078840;34;20170;-84
2021/12/20 08:47:35;;;;;;;3.30;2.25;;;2.40;84.10;;;1.04;79.84;95645.44;4036566;34;20039;-83
2021/12/20 08:50:04;;;;;;;3.65;2.28;;;2.40;84.00;;;1.02;79.69;95648.38;4014965;34;20296;-85
2021/12/20 08:52:30;;;;;;;3.53;1.92;;;2.40;84.00;;;1.04;79.69;95650.84;4057625;34;20227;-84
2021/12/20 08:54:57;;;;;;;4.05;2.20;;;2.40;84.10;;;1.05;79.76;95652.50;4078744;34;20039;-84
2021/12/20 08:57:23;;;;;;;4.28;2.58;;;2.40;84.10;;;1.07;79.89;95661.19;4015132;34;20048;-85
2021/12/20 08:59:49;;;;;;;3.90;2.20;;;2.40;84.20;;;1.09;79.81;95658.25;4081964;34;20019;-84
2021/12/20 09:02:16;;;;;;;4.15;2.28;;;2.40;84.10;;;1.09;79.58;95652.84;4062053;34;20404;-84
2021/12/20 09:04:42;;;;;;;5.07;2.60;;;2.40;84.00;;;1.13;79.68;95665.66;4082955;34;19988;-84
2021/12/20 09:07:14;;;;;;;4.75;2.45;;;2.50;84.00;;;1.15;79.95;95658.19;4083302;34;20113;-84
2021/12/20 09:09:44;;;;;;;3.97;2.13;;;2.50;84.00;;;1.17;79.45;95656.09;4085324;34;19989;-84
2021/12/20 09:12:11;;;;;;;3.67;2.00;;;2.50;83.90;;;1.16;79.42;95659.81;4083885;34;20081;-84
2021/12/20 09:14:37;;;;;;;3.47;2.55;;;2.50;83.80;;;1.15;79.70;95666.25;4082752;34;20020;-84
2021/12/20 09:17:04;;;;;;;3.42;2.38;;;2.50;83.60;;;1.16;79.48;95664.41;4061719;34;20422;-84
2021/12/20 09:19:30;;;;;;;4.03;1.95;;;2.50;83.50;;;1.13;79.65;95660.25;4082701;34;20063;-84
2021/12/20 09:21:57;;;;;;;4.07;2.30;;;2.50;83.50;;;1.13;78.91;95668.34;4061866;34;20059;-84
2021/12/20 09:24:23;;;;;;;3.60;1.92;;;2.50;83.40;;;1.11;79.51;95665.06;4082870;34;20527;-84
2021/12/20 09:26:49;;;;;;;4.00;2.50;;;2.50;83.50;;;1.12;79.36;95664.00;4061711;34;20003;-85
2021/12/20 09:29:16;;;;;;;4.63;2.33;;;2.50;83.60;;;1.11;79.75;95673.13;4083284;34;20118;-84
2021/12/20 09:31:44;;;;;;;3.92;2.10;;;2.50;83.70;;;1.10;79.63;95676.88;4083355;34;20034;-84
2021/12/20 09:34:11;;;;;;;3.65;2.10;;;2.50;83.70;;;1.09;79.37;95669.88;4083603;34;20547;-85
2021/12/20 09:36:37;;;;;;;4.38;2.22;;;2.50;83.80;;;1.09;79.25;95661.78;4061261;34;20300;-84
2021/12/20 09:39:10;;;;;;;4.20;2.42;;;2.40;83.60;;;1.10;79.47;95670.69;4104997;34;20465;-84
2021/12/20 09:44:08;;;;;;;3.85;1.95;;;2.50;83.80;;;1.11;79.76;95677.72;4062377;34;20066;-85
2021/12/20 09:46:34;;;;;;;3.83;1.40;;;2.50;83.80;;;1.14;79.08;95677.28;4036575;34;19997;-84
2021/12/20 09:49:02;;;;;;;3.33;2.17;;;2.50;83.60;;;1.15;79.43;95674.34;4078540;34;20078;-84
2021/12/20 09:51:28;;;;;;;3.50;2.15;;;2.50;83.60;;;1.18;79.11;95678.47;4089318;34;20035;-84
2021/12/20 09:53:57;;;;;;;4.13;2.22;;;2.50;84.40;;;1.20;79.46;95677.22;4047242;34;19977;-84
2021/12/20 09:56:25;;;;;;;3.88;2.22;;;2.60;83.50;;;1.19;79.34;95680.94;4079045;34;20098;-84
2021/12/20 09:58:56;;;;;;;4.60;2.35;;;2.60;83.50;;;1.18;79.31;95683.84;4078908;34;20650;-85
2021/12/20 10:01:23;;;;;;;3.80;2.00;;;2.60;83.30;;;1.17;79.54;95677.66;4079277;34;20099;-84
2021/12/20 10:03:50;;;;;;;4.03;1.55;;;2.60;83.20;;;1.17;78.93;95676.81;4078526;34;20084;-84
2021/12/20 10:06:17;;;;;;;3.33;1.70;;;2.50;83.00;;;1.16;79.18;95665.22;4078150;34;20325;-84
2021/12/20 10:08:55;;;;;;;3.22;1.88;;;2.50;83.10;;;1.14;78.71;95678.09;4105063;34;19976;-84
2021/12/20 10:11:27;;;;;;;3.22;1.63;;;2.50;83.00;;;1.14;78.85;95672.69;4087180;34;20000;-84
2021/12/20 10:14:12;;;;;;;2.85;1.63;;;2.50;83.20;;;1.13;79.28;95681.84;4083305;34;20265;-84
2021/12/20 10:16:43;;;;;;;4.20;1.67;;;2.50;83.30;;;1.14;79.05;95682.66;4083738;34;20012;-84
2021/12/20 10:19:34;;;;;;;2.70;1.45;;;2.50;83.30;;;1.12;79.13;95677.47;4083255;34;20142;-84
2021/12/20 10:22:08;;;;;;;2.72;1.30;;;2.50;83.30;;;1.12;79.07;95666.69;4083463;34;19997;-84
2021/12/20 10:24:36;;;;;;;2.28;1.10;;;2.50;83.30;;;1.11;79.00;95673.13;4085390;34;20003;-85
2021/12/20 10:27:03;;;;;;;3.15;1.67;;;2.50;83.40;;;1.13;79.12;95675.63;4060944;34;20046;-84
2021/12/20 10:29:30;;;;;;;3.20;1.58;;;2.50;83.40;;;1.12;79.14;95671.28;4061901;34;20200;-84
2021/12/20 10:31:56;;;;;;;4.25;1.35;;;2.50;83.50;;;1.12;79.03;95672.09;4085201;34;19988;-85
2021/12/20 10:34:34;;;;;;;3.35;1.50;;;2.50;83.40;;;1.12;79.40;95664.00;4106659;34;20054;-84
2021/12/20 10:37:03;;;;;;;3.70;2.03;;;2.50;83.40;;;1.13;79.32;95670.25;4085353;34;20166;-84
2021/12/20 10:39:45;;;;;;;2.55;1.45;;;2.50;83.50;;;1.13;79.18;95670.25;4084963;34;20593;-84
2021/12/20 10:42:25;;;;;;;3.53;1.10;;;2.50;83.60;;;1.13;79.21;95671.06;4086553;34;19988;-84
2021/12/20 10:45:15;;;;;;;2.35;1.30;;;2.50;83.50;;;1.11;79.15;95678.53;4085758;34;20111;-84
2021/12/20 10:47:43;;;;;;;2.42;1.40;;;2.50;83.50;;;1.11;79.01;95683.91;4082483;34;20222;-84
2021/12/20 10:50:43;;;;;;;2.22;1.10;;;2.50;83.50;;;1.12;79.21;95673.97;4102186;34;20062;-84
2021/12/20 10:53:23;;;;;;;3.00;1.70;;;2.50;83.50;;;1.12;79.02;95680.19;4064921;34;20031;-84
2021/12/20 10:55:57;;;;;;;2.53;1.30;;;2.50;83.50;;;1.12;79.12;95673.97;4107075;34;20326;-84